Galway, Ireland

1:37 PM GMT on February 07, 2016 (GMT +0000)
ICOGALWA4 | | Change Station
CLOSE
Current Station
Personal Weather Station
Location: Galway City, Co. Galway
Elevation: 75 ft
Nearby Weather Stations

Elev 75 ft 53.29 °N, 9.07 °W | Updated 0 second ago

Light Rain
Light Rain
43.2 °F
Feels Like 37 °F
N
12.0
Wind Variable Wind from SW
Gusts 24.0 mph

Today
High -- | Low -- °F
--% Chance of Precip.
Yesterday
High -- | Low -- °F
Precip. -- in
Pressure 29.00 in
Visibility 6.2 miles
Clouds Few 1500 ft
Mostly Cloudy 2000 ft
Mostly Cloudy 4200 ft
Windchill 37 °F
Dew Point 42 °F
Humidity 94%
Rainfall 0.17 in
Snow Depth Not available.
8:10 AM 5:30 PM
Waning Crescent, 1% visible
METAR EINN 071330Z 17014KT 9999 -RA FEW015 BKN020 BKN042 06/04 Q0982 NOSIG
Pressure 29.00 in
Visibility 6.2 miles
Clouds Few 1500 ft
Mostly Cloudy 2000 ft
Mostly Cloudy 4200 ft
Windchill 37 °F
Dew Point 42 °F
Humidity 94%
Rainfall 0.17 in
Snow Depth Not available.
8:10 AM 5:30 PM
Waning Crescent, 1% visible
METAR EINN 071330Z 17014KT 9999 -RA FEW015 BKN020 BKN042 06/04 Q0982 NOSIG

10-Day Weather Forecast

Almanac

Astronomy

Feb. 07, 2016 Rise Set
Actual Time
Civil Twilight
Nautical Twilight
Astronomical Twilight
Moon
Length of Visible Light
Length of Day
Tomorrow will be .
, % of the Moon is Illuminated

Today's Extremes

Country Highs Country Lows

Community

WunderPhotos

Upload Photos

1,891,190 photos uploaded!

WunderBlog® & News

Nearby

Air Quality

  Air Quality AQ Index Pollutant
Not available.

Snow Depth

Station Depth Elevation

Earthquake Activity

City Distance Mag. Time & Date
Minimum magnitude displayed is 2.5.

Coastal Water Temperatures

Place Temperature

Stations

Nearby Weather Stations

Station Location Temp. Windchill Dew Point Humidity Wind Precip. Elev Updated Type